createdAt,value
2023-04-29T00:01:08.132Z,1.60
2023-04-29T00:03:56.082Z,1.43
2023-04-29T00:06:43.520Z,1.20
2023-04-29T00:09:30.636Z,1.07
2023-04-29T00:12:18.161Z,1.07
2023-04-29T00:15:05.262Z,1.20
2023-04-29T00:17:53.106Z,1.10
2023-04-29T00:20:40.383Z,1.07
2023-04-29T00:23:27.314Z,1.00
2023-04-29T00:26:14.273Z,1.20
2023-04-29T00:29:05.835Z,1.13
2023-04-29T00:31:52.931Z,1.23
2023-04-29T00:34:40.193Z,1.00
2023-04-29T00:37:27.351Z,1.07
2023-04-29T00:40:14.295Z,1.20
2023-04-29T00:43:01.971Z,1.10
2023-04-29T00:45:48.933Z,1.10
2023-04-29T00:48:36.060Z,1.30
2023-04-29T00:51:23.218Z,1.60
2023-04-29T00:54:10.574Z,1.07
2023-04-29T00:56:59.499Z,1.07
2023-04-29T00:59:46.994Z,1.40
2023-04-29T01:02:34.142Z,1.43
2023-04-29T01:05:21.302Z,1.23
2023-04-29T01:08:20.302Z,1.40
2023-04-29T01:11:18.230Z,1.27
2023-04-29T01:14:22.884Z,1.60
2023-04-29T01:17:19.799Z,1.47
2023-04-29T01:20:15.668Z,1.70
2023-04-29T01:23:03.113Z,1.73
2023-04-29T01:25:50.504Z,2.13
2023-04-29T01:28:47.456Z,2.00
2023-04-29T01:32:24.566Z,2.00
2023-04-29T01:35:27.489Z,2.27
2023-04-29T01:38:29.854Z,1.93
2023-04-29T01:41:37.888Z,2.03
2023-04-29T01:44:44.629Z,2.10
2023-04-29T01:47:34.599Z,2.00
2023-04-29T01:50:21.716Z,2.10
2023-04-29T01:53:09.343Z,2.60
2023-04-29T01:55:56.485Z,2.23
2023-04-29T01:58:47.969Z,2.40
2023-04-29T02:01:58.509Z,2.30
2023-04-29T02:04:46.208Z,2.53
2023-04-29T02:07:33.488Z,1.83
2023-04-29T02:10:20.835Z,2.27
2023-04-29T02:13:11.194Z,2.20
2023-04-29T02:16:18.190Z,1.87
2023-04-29T02:19:25.575Z,1.97
2023-04-29T02:22:15.446Z,2.10
2023-04-29T02:25:03.137Z,1.90
2023-04-29T02:27:52.082Z,1.90
2023-04-29T02:30:39.337Z,2.10
2023-04-29T02:33:26.334Z,1.50
2023-04-29T02:36:13.526Z,2.07
2023-04-29T02:39:00.703Z,1.90
2023-04-29T02:41:47.664Z,1.90
2023-04-29T02:44:34.918Z,1.73
2023-04-29T02:47:22.076Z,1.67
2023-04-29T02:50:09.602Z,2.20
2023-04-29T02:52:56.979Z,1.90
2023-04-29T02:55:44.104Z,2.07
2023-04-29T02:58:31.297Z,1.83
2023-04-29T03:01:18.358Z,1.90
2023-04-29T03:04:05.954Z,1.73
2023-04-29T03:06:53.189Z,2.00
2023-04-29T03:09:40.727Z,1.50
2023-04-29T03:12:27.784Z,1.53
2023-04-29T03:15:15.145Z,1.67
2023-04-29T03:18:02.636Z,1.70
2023-04-29T03:20:50.043Z,1.80
2023-04-29T03:23:36.927Z,1.60
2023-04-29T03:26:25.453Z,1.30
2023-04-29T03:29:12.605Z,1.70
2023-04-29T03:31:59.900Z,1.70
2023-04-29T03:34:46.839Z,1.70
2023-04-29T03:38:06.137Z,1.60
2023-04-29T03:40:54.727Z,1.50
2023-04-29T03:43:42.428Z,1.37
2023-04-29T03:46:32.260Z,1.40
2023-04-29T03:49:21.445Z,1.40
2023-04-29T03:52:09.322Z,1.80
2023-04-29T03:54:56.468Z,1.50
2023-04-29T03:57:43.679Z,1.50
2023-04-29T04:00:32.470Z,1.60
2023-04-29T04:03:23.134Z,1.60
2023-04-29T04:06:10.951Z,1.47
2023-04-29T04:08:58.459Z,1.47
2023-04-29T04:11:48.775Z,1.33
2023-04-29T04:14:36.006Z,1.30
2023-04-29T04:17:23.093Z,1.70
2023-04-29T04:20:10.808Z,1.77
2023-04-29T04:22:58.284Z,1.50
2023-04-29T04:25:49.339Z,1.10
2023-04-29T04:29:08.974Z,1.10
2023-04-29T04:32:11.082Z,1.40
2023-04-29T04:35:02.129Z,1.40
2023-04-29T04:37:49.188Z,1.63
2023-04-29T04:40:36.204Z,1.37
2023-04-29T04:43:58.734Z,1.53
2023-04-29T04:46:55.658Z,1.00
2023-04-29T04:49:59.531Z,1.30
2023-04-29T04:52:47.364Z,1.00
2023-04-29T04:55:54.721Z,1.20
2023-04-29T04:58:41.842Z,1.30
2023-04-29T05:01:29.888Z,1.00
2023-04-29T05:04:17.436Z,0.77
2023-04-29T05:07:04.694Z,1.00
2023-04-29T05:10:02.506Z,0.97
2023-04-29T05:12:51.654Z,0.97
2023-04-29T05:15:39.874Z,0.70
2023-04-29T05:18:28.623Z,0.80
2023-04-29T05:21:17.570Z,0.90
2023-04-29T05:24:05.293Z,0.93
2023-04-29T05:26:52.793Z,0.80
2023-04-29T05:29:39.820Z,0.93
2023-04-29T05:32:27.221Z,1.10
2023-04-29T05:35:14.205Z,0.90
2023-04-29T05:38:01.666Z,0.90
2023-04-29T05:40:56.431Z,1.00
2023-04-29T05:43:52.634Z,0.90
2023-04-29T05:46:39.665Z,0.97
2023-04-29T05:49:26.776Z,1.03
2023-04-29T05:52:13.680Z,1.13
2023-04-29T05:55:05.758Z,0.80
2023-04-29T05:57:52.837Z,1.00
2023-04-29T06:00:40.182Z,1.13
2023-04-29T06:03:33.712Z,0.97
2023-04-29T06:06:43.854Z,0.93
2023-04-29T06:09:39.173Z,0.77
2023-04-29T06:12:26.438Z,0.97
2023-04-29T06:15:13.722Z,1.00
2023-04-29T06:18:01.308Z,1.00
2023-04-29T06:20:48.307Z,1.07
2023-04-29T06:23:35.784Z,1.30
2023-04-29T06:26:28.186Z,1.13
2023-04-29T06:29:15.723Z,1.07
2023-04-29T06:32:02.746Z,1.10
2023-04-29T06:34:50.609Z,0.90
2023-04-29T06:37:52.286Z,1.10
2023-04-29T06:40:57.824Z,1.00
2023-04-29T06:44:13.676Z,1.27
2023-04-29T06:47:22.855Z,0.93
2023-04-29T06:50:36.549Z,1.17
2023-04-29T06:53:27.112Z,0.90
2023-04-29T06:56:16.725Z,1.00
2023-04-29T06:59:04.744Z,0.90
2023-04-29T07:01:51.981Z,0.97
2023-04-29T07:04:40.229Z,1.00
2023-04-29T07:07:27.390Z,0.77
2023-04-29T07:10:14.443Z,0.90
2023-04-29T07:13:01.395Z,1.03
2023-04-29T07:15:48.917Z,0.70
2023-04-29T07:18:36.154Z,0.70
2023-04-29T07:21:23.244Z,0.63
2023-04-29T07:24:10.169Z,0.97
2023-04-29T07:26:57.151Z,0.97
2023-04-29T07:29:44.302Z,0.70
2023-04-29T07:32:31.623Z,0.90
2023-04-29T07:35:21.744Z,0.90
2023-04-29T07:38:08.904Z,0.80
2023-04-29T07:40:56.067Z,0.90
2023-04-29T07:43:43.823Z,0.80
2023-04-29T07:46:30.791Z,1.10
2023-04-29T07:49:18.590Z,1.00
2023-04-29T07:52:05.576Z,0.77
2023-04-29T07:54:53.129Z,0.77
2023-04-29T07:57:40.375Z,0.70
2023-04-29T08:00:08.551Z,0.83
2023-04-29T08:02:42.708Z,0.70
2023-04-29T08:05:12.603Z,0.67
2023-04-29T08:07:40.026Z,0.53
2023-04-29T08:10:07.787Z,0.70
2023-04-29T08:12:38.221Z,0.70
2023-04-29T08:15:26.106Z,0.70
2023-04-29T08:18:14.259Z,0.60
2023-04-29T08:21:01.595Z,0.60
2023-04-29T08:23:48.558Z,0.40
2023-04-29T08:26:35.613Z,0.80
2023-04-29T08:29:22.528Z,0.70
2023-04-29T08:32:09.664Z,0.80
2023-04-29T08:34:56.764Z,0.77
2023-04-29T08:37:43.646Z,0.50
2023-04-29T08:40:31.097Z,0.40
2023-04-29T08:43:19.417Z,0.70
2023-04-29T08:46:09.146Z,0.90
2023-04-29T08:48:57.685Z,0.80
2023-04-29T08:51:44.610Z,0.90
2023-04-29T08:54:31.693Z,0.90
2023-04-29T08:57:19.991Z,1.07
2023-04-29T09:00:07.428Z,0.80
2023-04-29T09:03:01.889Z,1.00
2023-04-29T09:05:49.747Z,1.20
2023-04-29T09:08:37.611Z,1.00
2023-04-29T09:11:28.434Z,0.90
2023-04-29T09:14:22.982Z,1.07
2023-04-29T09:17:10.103Z,1.07
2023-04-29T09:19:57.509Z,1.10
2023-04-29T09:22:44.673Z,0.90
2023-04-29T09:25:35.104Z,1.17
2023-04-29T09:28:35.586Z,1.00
2023-04-29T09:31:23.263Z,1.20
2023-04-29T09:34:12.907Z,1.50
2023-04-29T09:37:02.381Z,1.23
2023-04-29T09:39:58.835Z,1.33
2023-04-29T09:42:46.296Z,1.20
2023-04-29T09:45:33.238Z,1.00
2023-04-29T09:48:24.119Z,1.03
2023-04-29T09:51:21.909Z,1.20
2023-04-29T09:54:09.191Z,1.60
2023-04-29T09:57:10.162Z,1.60
2023-04-29T09:59:59.374Z,1.50
2023-04-29T10:02:47.922Z,1.57
2023-04-29T10:05:35.965Z,1.47
2023-04-29T10:08:23.250Z,1.10
2023-04-29T10:11:11.178Z,0.93
2023-04-29T10:14:02.194Z,0.63
2023-04-29T10:16:51.526Z,0.60
2023-04-29T10:19:52.449Z,0.70
2023-04-29T10:23:12.582Z,0.90
2023-04-29T10:26:01.914Z,0.80
2023-04-29T10:28:52.069Z,0.93
2023-04-29T10:31:40.223Z,0.70
2023-04-29T10:34:27.802Z,1.10
2023-04-29T10:37:15.009Z,1.20
2023-04-29T10:40:21.846Z,1.30
2023-04-29T10:43:10.152Z,1.60
2023-04-29T10:45:57.568Z,1.40
2023-04-29T10:48:44.759Z,1.60
2023-04-29T10:51:31.964Z,1.40
2023-04-29T10:54:19.686Z,1.10
2023-04-29T10:57:14.342Z,1.00
2023-04-29T11:00:01.237Z,0.90
2023-04-29T11:02:48.420Z,1.10
2023-04-29T11:05:35.450Z,1.03
2023-04-29T11:08:32.826Z,0.90
2023-04-29T11:11:22.996Z,1.00
2023-04-29T11:14:10.539Z,0.97
2023-04-29T11:16:58.494Z,1.10
2023-04-29T11:19:53.084Z,1.40
2023-04-29T11:22:43.288Z,1.07
2023-04-29T11:25:30.271Z,1.20
2023-04-29T11:28:17.927Z,1.73
2023-04-29T11:31:06.383Z,1.40
2023-04-29T11:33:53.430Z,1.30
2023-04-29T11:36:40.629Z,1.60
2023-04-29T11:39:28.268Z,3.00
2023-04-29T11:42:27.960Z,2.00
2023-04-29T11:45:15.754Z,1.20
2023-04-29T11:48:07.274Z,1.20
2023-04-29T11:50:54.239Z,0.80
2023-04-29T11:53:42.288Z,0.93
2023-04-29T11:56:30.377Z,0.83
2023-04-29T11:59:18.212Z,0.70
2023-04-29T12:02:05.151Z,0.80
2023-04-29T12:04:52.369Z,0.90
2023-04-29T12:07:39.637Z,0.70
2023-04-29T12:10:33.303Z,0.63
2023-04-29T12:13:20.598Z,0.70
2023-04-29T12:16:09.832Z,0.97
2023-04-29T12:18:57.108Z,0.83
2023-04-29T12:21:44.175Z,0.73
2023-04-29T12:24:33.227Z,0.60
2023-04-29T12:27:20.826Z,0.60
2023-04-29T12:30:07.815Z,0.40
2023-04-29T12:32:54.797Z,0.90
2023-04-29T12:35:41.924Z,0.80
2023-04-29T12:38:29.927Z,0.60
2023-04-29T12:41:19.688Z,0.80
2023-04-29T12:44:06.754Z,0.97
2023-04-29T12:47:01.695Z,0.80
2023-04-29T12:49:48.761Z,0.63
2023-04-29T12:52:36.949Z,0.80
2023-04-29T12:55:24.310Z,0.97
2023-04-29T12:58:11.379Z,0.60
2023-04-29T13:00:38.593Z,0.70
2023-04-29T13:03:25.749Z,1.63
2023-04-29T13:06:13.081Z,0.70
2023-04-29T13:09:00.174Z,0.90
2023-04-29T13:11:47.262Z,0.83
2023-04-29T13:14:34.257Z,0.70
2023-04-29T13:17:21.908Z,0.60
2023-04-29T13:20:11.451Z,0.53
2023-04-29T13:23:03.729Z,0.30
2023-04-29T13:25:53.260Z,0.67
2023-04-29T13:28:42.554Z,0.43
2023-04-29T13:31:30.223Z,0.50
2023-04-29T13:34:18.747Z,0.80
2023-04-29T13:37:07.628Z,0.80
2023-04-29T13:39:57.621Z,0.43
2023-04-29T13:42:50.115Z,0.50
2023-04-29T13:45:43.789Z,0.50
2023-04-29T13:54:48.157Z,0.50
2023-04-29T14:00:44.282Z,0.30
2023-04-29T14:03:23.239Z,0.40
2023-04-29T14:06:10.277Z,0.63
2023-04-29T14:08:57.312Z,0.50
2023-04-29T14:11:44.496Z,0.47
2023-04-29T14:14:31.712Z,0.70
2023-04-29T14:17:18.753Z,0.60
2023-04-29T14:20:06.011Z,0.60
2023-04-29T14:22:53.084Z,0.73
2023-04-29T14:25:40.063Z,0.50
2023-04-29T14:28:26.994Z,0.70
2023-04-29T14:31:13.989Z,0.67
2023-04-29T14:34:00.947Z,0.70
2023-04-29T14:36:47.992Z,0.87
2023-04-29T14:39:34.888Z,0.53
2023-04-29T14:42:21.724Z,0.60
2023-04-29T14:45:08.846Z,0.40
2023-04-29T14:47:55.920Z,0.40
2023-04-29T14:50:43.048Z,0.63
2023-04-29T14:53:30.052Z,0.60
2023-04-29T14:56:16.999Z,0.47
2023-04-29T14:59:04.248Z,0.70
2023-04-29T15:01:51.285Z,0.60
2023-04-29T15:04:38.282Z,0.87
2023-04-29T15:07:25.226Z,0.60
2023-04-29T15:10:12.367Z,0.70
2023-04-29T15:12:59.378Z,0.50
2023-04-29T15:15:46.677Z,0.53
2023-04-29T15:18:33.557Z,0.70
2023-04-29T15:21:20.642Z,0.50
2023-04-29T15:24:07.957Z,0.67
2023-04-29T15:26:55.021Z,0.77
2023-04-29T15:29:41.994Z,0.50
2023-04-29T15:32:28.972Z,0.60
2023-04-29T15:35:16.086Z,0.70
2023-04-29T15:37:59.527Z,0.77
2023-04-29T15:40:46.478Z,0.70
2023-04-29T15:43:33.661Z,0.50
2023-04-29T15:46:20.695Z,0.90
2023-04-29T15:49:08.013Z,0.80
2023-04-29T15:51:54.985Z,0.70
2023-04-29T15:54:41.964Z,0.60
2023-04-29T15:57:29.062Z,0.60
2023-04-29T16:00:16.462Z,0.40
2023-04-29T16:03:03.525Z,0.60
2023-04-29T16:05:50.538Z,0.70
2023-04-29T16:08:37.464Z,0.60
2023-04-29T16:11:24.350Z,0.70
2023-04-29T16:14:11.383Z,0.60
2023-04-29T16:16:58.715Z,0.60
2023-04-29T16:19:45.731Z,0.70
2023-04-29T16:22:32.745Z,0.60
2023-04-29T16:25:19.820Z,0.80
2023-04-29T16:28:07.226Z,0.40
2023-04-29T16:30:54.922Z,0.50
2023-04-29T16:33:42.153Z,0.70
2023-04-29T16:36:29.218Z,0.60
2023-04-29T16:39:16.298Z,0.70
2023-04-29T16:42:03.264Z,0.80
2023-04-29T16:44:50.282Z,0.83
2023-04-29T16:47:37.393Z,0.90
2023-04-29T16:50:24.759Z,1.40
2023-04-29T16:53:11.790Z,0.67
2023-04-29T16:55:58.865Z,0.70
2023-04-29T16:58:45.953Z,0.93
2023-04-29T17:01:33.127Z,0.60
2023-04-29T17:04:20.193Z,0.50
2023-04-29T17:07:07.358Z,0.67
2023-04-29T17:09:54.697Z,0.60
2023-04-29T17:12:41.939Z,0.70
2023-04-29T17:15:29.198Z,0.87
2023-04-29T17:18:16.133Z,0.57
2023-04-29T17:21:04.113Z,0.53
2023-04-29T17:23:51.217Z,0.60
2023-04-29T17:26:38.204Z,0.50
2023-04-29T17:29:25.576Z,0.90
2023-04-29T17:32:15.175Z,0.80
2023-04-29T17:35:02.306Z,1.00
2023-04-29T17:37:49.265Z,0.77
2023-04-29T17:40:36.416Z,0.70
2023-04-29T17:43:23.312Z,0.80
2023-04-29T17:46:10.614Z,0.70
2023-04-29T17:48:57.515Z,0.50
2023-04-29T17:51:44.596Z,0.60
2023-04-29T17:54:31.464Z,0.70
2023-04-29T17:57:18.411Z,0.60
2023-04-29T18:00:05.258Z,0.77
2023-04-29T18:02:52.428Z,0.83
2023-04-29T18:05:40.373Z,0.67
2023-04-29T18:08:27.291Z,0.70
2023-04-29T18:11:14.286Z,0.80
2023-04-29T18:14:01.560Z,0.70
2023-04-29T18:16:48.526Z,0.70
2023-04-29T18:19:35.560Z,0.50
2023-04-29T18:22:22.501Z,0.53
2023-04-29T18:25:09.551Z,0.80
2023-04-29T18:28:07.539Z,0.60
2023-04-29T18:31:05.475Z,0.60
2023-04-29T18:33:52.442Z,0.53
2023-04-29T18:36:39.783Z,0.57
2023-04-29T18:39:26.841Z,0.90
2023-04-29T18:42:13.944Z,0.70
2023-04-29T18:45:00.854Z,0.70
2023-04-29T18:47:47.961Z,0.60
2023-04-29T18:50:35.023Z,0.60
2023-04-29T18:53:22.074Z,0.77
2023-04-29T18:56:09.113Z,0.87
2023-04-29T18:58:56.186Z,0.50
2023-04-29T19:01:43.353Z,0.70
2023-04-29T19:04:30.464Z,0.50
2023-04-29T19:07:18.078Z,0.80
2023-04-29T19:10:05.120Z,1.00
2023-04-29T19:12:52.255Z,0.60
2023-04-29T19:15:39.202Z,0.70
2023-04-29T19:18:26.248Z,0.50
2023-04-29T19:21:13.542Z,0.83
2023-04-29T19:24:01.601Z,0.63
2023-04-29T19:26:48.802Z,0.80
2023-04-29T19:29:36.367Z,0.50
2023-04-29T19:32:23.449Z,1.50
2023-04-29T19:35:10.898Z,0.70
2023-04-29T19:37:58.223Z,0.50
2023-04-29T19:40:45.289Z,0.70
2023-04-29T19:43:32.305Z,0.93
2023-04-29T19:46:19.356Z,0.93
2023-04-29T19:49:06.438Z,0.60
2023-04-29T19:51:53.381Z,0.90
2023-04-29T19:54:40.337Z,0.70
2023-04-29T19:57:27.236Z,1.10
2023-04-29T20:00:14.245Z,1.00
2023-04-29T20:03:01.817Z,0.70
2023-04-29T20:05:49.242Z,0.80
2023-04-29T20:08:36.251Z,1.20
2023-04-29T20:11:23.408Z,0.90
2023-04-29T20:14:10.468Z,1.03
2023-04-29T20:17:00.215Z,1.03
2023-04-29T20:19:47.593Z,1.80
2023-04-29T20:22:34.546Z,0.97
2023-04-29T20:25:21.792Z,1.23
2023-04-29T20:28:08.878Z,1.60
2023-04-29T20:30:56.323Z,2.00
2023-04-29T20:33:43.271Z,2.77
2023-04-29T20:36:30.396Z,2.00
2023-04-29T20:39:17.405Z,1.53
2023-04-29T20:42:04.604Z,1.40
2023-04-29T20:44:51.670Z,1.40
2023-04-29T20:47:38.775Z,1.43
2023-04-29T20:50:26.581Z,1.27
2023-04-29T20:53:13.609Z,1.30
2023-04-29T20:56:00.700Z,1.20
2023-04-29T20:58:47.669Z,1.43
2023-04-29T21:01:35.627Z,1.40
2023-04-29T21:04:25.542Z,1.17
2023-04-29T21:07:12.622Z,1.30
2023-04-29T21:09:59.737Z,1.20
2023-04-29T21:12:46.732Z,1.60
2023-04-29T21:15:34.125Z,1.77
2023-04-29T21:18:21.178Z,1.30
2023-04-29T21:21:08.202Z,1.20
2023-04-29T21:23:55.235Z,1.20
2023-04-29T21:26:42.314Z,1.10
2023-04-29T21:29:29.624Z,1.13
2023-04-29T21:32:16.699Z,1.20
2023-04-29T21:35:03.612Z,1.13
2023-04-29T21:37:50.779Z,1.30
2023-04-29T21:40:37.914Z,1.20
2023-04-29T21:43:25.120Z,1.30
2023-04-29T21:46:13.495Z,1.03
2023-04-29T21:49:00.482Z,1.20
2023-04-29T21:51:49.244Z,1.20
2023-04-29T21:54:36.319Z,1.37
2023-04-29T21:57:35.680Z,1.10
2023-04-29T22:00:31.036Z,0.90
2023-04-29T22:03:18.202Z,1.20
2023-04-29T22:06:05.433Z,1.27
2023-04-29T22:08:52.503Z,1.03
2023-04-29T22:11:39.559Z,1.20
2023-04-29T22:14:26.633Z,1.13
2023-04-29T22:17:13.638Z,1.47
2023-04-29T22:20:00.850Z,1.30
2023-04-29T22:22:47.828Z,1.30
2023-04-29T22:25:34.934Z,1.30
2023-04-29T22:28:22.060Z,1.30
2023-04-29T22:31:09.191Z,1.30
2023-04-29T22:33:56.376Z,1.20
2023-04-29T22:36:43.510Z,1.33
2023-04-29T22:39:30.447Z,1.40
2023-04-29T22:42:17.435Z,2.23
2023-04-29T22:45:04.430Z,1.20
2023-04-29T22:47:51.415Z,1.20
2023-04-29T22:50:38.731Z,1.30
2023-04-29T22:53:25.769Z,1.60
2023-04-29T22:56:14.344Z,1.43
2023-04-29T22:59:01.359Z,1.40
2023-04-29T23:01:48.588Z,1.20
2023-04-29T23:04:35.735Z,1.50
2023-04-29T23:07:22.881Z,2.40
2023-04-29T23:10:11.045Z,1.30
2023-04-29T23:12:58.078Z,1.00
2023-04-29T23:15:48.870Z,1.10
2023-04-29T23:18:35.926Z,1.20
2023-04-29T23:21:23.070Z,1.40
2023-04-29T23:24:10.015Z,1.63
2023-04-29T23:26:57.306Z,1.00
2023-04-29T23:29:44.388Z,1.00
2023-04-29T23:32:31.736Z,1.23
2023-04-29T23:35:18.899Z,1.13
2023-04-29T23:38:05.926Z,1.37
2023-04-29T23:40:53.145Z,2.30
2023-04-29T23:43:40.338Z,2.00
2023-04-29T23:46:27.471Z,1.90
2023-04-29T23:49:14.768Z,1.87
2023-04-29T23:52:01.918Z,2.30
2023-04-29T23:54:48.914Z,2.27
2023-04-29T23:57:36.065Z,2.60
